Time;durP1;ratioP1;P1;durP2;ratioP2;P2;SDS_P1;SDS_P2;PMS_P1;PMS_P2;Temp;Humidity;BMP_temperature;BMP_pressure;BME280_temperature;BME280_humidity;BME280_pressure;Samples;Min_cycle;Max_cycle;Signal;HPM_P1;HPM_P2
2022/06/30 00:01:23;;;;;;;14.73;7.78;;;;;;;18.52;100.00;97376.09;4988061;28;20035;-80
2022/06/30 00:03:49;;;;;;;18.67;7.60;;;;;;;18.52;100.00;97367.97;4974260;28;20405;-80
2022/06/30 00:06:14;;;;;;;16.08;6.95;;;;;;;18.53;100.00;97364.25;4994363;28;20097;-81
2022/06/30 00:08:40;;;;;;;16.42;7.55;;;;;;;18.56;100.00;97360.41;4993795;28;20034;-81
2022/06/30 00:11:08;;;;;;;11.75;7.25;;;;;;;18.52;100.00;97362.56;4993440;28;20048;-80
2022/06/30 00:13:38;;;;;;;16.25;7.35;;;;;;;18.45;100.00;97363.28;5000205;28;20088;-77
2022/06/30 00:16:04;;;;;;;9.20;7.38;;;;;;;18.42;100.00;97367.13;4996564;28;20477;-80
2022/06/30 00:18:30;;;;;;;12.70;7.38;;;;;;;18.34;100.00;97367.00;5010021;28;20032;-80
2022/06/30 00:20:56;;;;;;;18.52;7.28;;;;;;;18.36;100.00;97365.03;5009799;28;20113;-80
2022/06/30 00:23:21;;;;;;;13.95;7.30;;;;;;;18.38;100.00;97363.88;4980776;28;20541;-80
2022/06/30 00:25:47;;;;;;;18.33;6.80;;;;;;;18.42;100.00;97365.28;4979329;28;20076;-81
2022/06/30 00:28:13;;;;;;;14.45;7.18;;;;;;;18.41;100.00;97374.41;4974449;28;20045;-81
2022/06/30 00:30:39;;;;;;;16.08;7.03;;;;;;;18.37;100.00;97362.16;4993448;28;20022;-80
2022/06/30 00:33:04;;;;;;;14.77;7.22;;;;;;;18.41;100.00;97362.72;4993334;28;20045;-80
2022/06/30 00:35:30;;;;;;;14.93;7.38;;;;;;;18.40;100.00;97367.28;4990341;28;20069;-81
2022/06/30 00:37:56;;;;;;;17.80;7.78;;;;;;;18.33;100.00;97349.91;5012255;28;20093;-81
2022/06/30 00:40:21;;;;;;;14.73;7.25;;;;;;;18.42;100.00;97367.13;4997090;28;20030;-80
2022/06/30 00:42:47;;;;;;;17.98;7.45;;;;;;;18.33;100.00;97362.63;4981365;28;20474;-80
2022/06/30 00:45:13;;;;;;;12.43;7.57;;;;;;;18.33;100.00;97378.84;4977388;28;20161;-80
2022/06/30 00:47:39;;;;;;;14.70;7.38;;;;;;;18.30;100.00;97376.44;4986445;28;20136;-80
2022/06/30 00:50:05;;;;;;;14.52;7.55;;;;;;;18.29;100.00;97364.75;4985250;28;20496;-80
2022/06/30 00:52:33;;;;;;;11.02;7.57;;;;;;;18.34;100.00;97372.41;4977171;28;20113;-82
2022/06/30 00:54:58;;;;;;;11.52;7.93;;;;;;;18.27;100.00;97368.63;4977497;28;20030;-80
2022/06/30 00:57:24;;;;;;;15.35;7.93;;;;;;;18.27;100.00;97371.31;4991527;28;20029;-80
2022/06/30 00:59:53;;;;;;;16.48;8.00;;;;;;;18.20;100.00;97359.38;4993507;28;20042;-80
2022/06/30 01:02:19;;;;;;;10.88;7.95;;;;;;;18.20;100.00;97349.41;4987660;28;20032;-80
2022/06/30 01:04:46;;;;;;;12.23;8.90;;;;;;;18.25;100.00;97352.50;4976796;28;20109;-80
2022/06/30 01:07:13;;;;;;;13.25;8.27;;;;;;;18.25;100.00;97362.47;4987117;28;20439;-80
2022/06/30 01:15:07;;;;;;;13.18;9.05;;;;;;;18.16;100.00;97364.22;4993315;28;20037;-80
2022/06/30 01:17:33;;;;;;;12.95;9.25;;;;;;;18.19;100.00;97371.19;4975345;28;20089;-80
2022/06/30 01:20:00;;;;;;;13.05;8.52;;;;;;;18.13;100.00;97363.66;4993134;28;20113;-80
2022/06/30 01:22:26;;;;;;;17.48;8.80;;;;;;;18.08;100.00;97360.53;4992717;28;20026;-80
2022/06/30 01:24:51;;;;;;;15.40;8.20;;;;;;;18.02;100.00;97361.13;4996949;28;20030;-80
2022/06/30 01:27:17;;;;;;;11.88;9.02;;;;;;;18.07;100.00;97358.81;4978045;28;20108;-79
2022/06/30 01:29:43;;;;;;;14.63;8.55;;;;;;;18.05;100.00;97363.53;4976460;28;20475;-80
2022/06/30 01:32:09;;;;;;;14.63;9.20;;;;;;;17.98;100.00;97365.09;5004265;28;20129;-80
2022/06/30 01:34:34;;;;;;;15.15;9.88;;;;;;;17.93;100.00;97357.44;5028885;28;20030;-80
2022/06/30 01:37:00;;;;;;;16.83;8.68;;;;;;;17.87;100.00;97353.44;5012627;28;20033;-80
2022/06/30 01:39:25;;;;;;;15.65;8.70;;;;;;;17.81;100.00;97348.59;5013447;28;20045;-80
2022/06/30 01:41:51;;;;;;;16.65;9.80;;;;;;;17.72;100.00;97365.69;5028616;28;20026;-80
2022/06/30 01:44:17;;;;;;;17.40;8.93;;;;;;;17.64;100.00;97356.59;5011952;28;20491;-81
2022/06/30 01:46:47;;;;;;;14.30;8.45;;;;;;;17.63;100.00;97360.28;5009657;28;20030;-80
2022/06/30 01:49:13;;;;;;;13.50;8.55;;;;;;;17.50;100.00;97349.75;5028227;28;20051;-80
2022/06/30 01:51:38;;;;;;;13.95;8.60;;;;;;;17.51;100.00;97347.88;5028652;28;20489;-81
2022/06/30 01:54:04;;;;;;;15.95;8.95;;;;;;;17.52;100.00;97352.31;4999427;28;20057;-80
2022/06/30 01:56:29;;;;;;;17.00;8.93;;;;;;;17.43;100.00;97356.72;5028082;28;20124;-80
2022/06/30 01:58:55;;;;;;;15.23;8.82;;;;;;;17.43;100.00;97366.69;4995644;28;20040;-80
2022/06/30 02:01:21;;;;;;;14.80;8.00;;;;;;;17.43;100.00;97362.13;5028459;28;20033;-80
2022/06/30 02:03:46;;;;;;;14.07;8.20;;;;;;;17.32;100.00;97368.50;4995482;28;20116;-80
2022/06/30 02:06:12;;;;;;;17.20;8.35;;;;;;;17.19;100.00;97357.16;4995813;28;20083;-80
2022/06/30 02:08:38;;;;;;;19.73;8.40;;;;;;;17.10;100.00;97347.13;5011582;28;20026;-80
2022/06/30 02:11:03;;;;;;;20.92;8.52;;;;;;;17.10;100.00;97357.13;4995400;28;20551;-80
2022/06/30 02:13:29;;;;;;;18.48;8.25;;;;;;;17.09;100.00;97366.22;4999301;28;20042;-81
2022/06/30 02:15:54;;;;;;;15.63;8.18;;;;;;;17.16;100.00;97361.97;5011548;28;20038;-80
2022/06/30 02:18:20;;;;;;;16.55;8.30;;;;;;;17.14;100.00;97353.97;5009176;28;20182;-80
2022/06/30 02:20:46;;;;;;;16.70;8.10;;;;;;;17.17;100.00;97360.94;5011557;28;20109;-81
2022/06/30 02:23:11;;;;;;;13.07;8.52;;;;;;;17.17;100.00;97361.81;5011600;28;20113;-81
2022/06/30 02:25:37;;;;;;;14.05;8.05;;;;;;;17.22;100.00;97369.50;5011285;28;20032;-81
2022/06/30 02:28:05;;;;;;;16.73;8.60;;;;;;;17.20;100.00;97360.66;5012077;28;20131;-79
2022/06/30 02:30:33;;;;;;;11.30;8.85;;;;;;;17.18;100.00;97368.06;5011362;28;20556;-80
2022/06/30 02:32:59;;;;;;;14.85;8.45;;;;;;;17.14;100.00;97372.03;5027818;28;20057;-80
2022/06/30 02:35:24;;;;;;;17.42;7.85;;;;;;;17.15;100.00;97368.34;5008887;28;20152;-79
2022/06/30 02:37:53;;;;;;;12.65;8.02;;;;;;;17.12;100.00;97365.94;5010229;28;20065;-81
2022/06/30 02:40:19;;;;;;;15.38;7.72;;;;;;;17.09;100.00;97363.50;5011262;28;20029;-81
2022/06/30 02:42:45;;;;;;;20.23;8.95;;;;;;;16.93;100.00;97364.03;4992578;28;20066;-80
2022/06/30 02:45:11;;;;;;;9.88;8.05;;;;;;;16.91;100.00;97357.94;5027459;28;20053;-81
2022/06/30 02:47:41;;;;;;;14.98;8.20;;;;;;;16.96;100.00;97365.63;5010573;28;20193;-81
2022/06/30 02:50:09;;;;;;;17.35;8.20;;;;;;;16.88;100.00;97366.31;5011142;28;20397;-80
2022/06/30 02:52:35;;;;;;;12.70;8.30;;;;;;;16.87;100.00;97372.72;5027168;28;20131;-80
2022/06/30 02:55:02;;;;;;;13.57;8.55;;;;;;;16.88;100.00;97373.56;4994201;28;20034;-80
2022/06/30 02:57:28;;;;;;;24.27;9.23;;;;;;;16.91;100.00;97365.19;4994393;28;20077;-81
2022/06/30 02:59:54;;;;;;;25.80;7.93;;;;;;;16.89;100.00;97367.19;5010404;28;20028;-80
2022/06/30 03:02:20;;;;;;;15.60;8.73;;;;;;;16.82;100.00;97374.13;5027167;28;20025;-81
2022/06/30 03:04:46;;;;;;;14.23;8.05;;;;;;;16.81;100.00;97367.84;4997032;28;20096;-81
2022/06/30 03:07:11;;;;;;;14.65;8.65;;;;;;;16.80;100.00;97369.69;4994859;28;20017;-81
2022/06/30 03:09:37;;;;;;;12.68;8.20;;;;;;;16.77;100.00;97380.78;5026819;28;20037;-81
2022/06/30 03:12:03;;;;;;;17.13;8.02;;;;;;;16.82;100.00;97379.53;5005199;28;20092;-80
2022/06/30 03:14:29;;;;;;;13.40;8.00;;;;;;;16.86;100.00;97370.16;5027103;28;20121;-80
2022/06/30 03:16:54;;;;;;;14.80;7.85;;;;;;;16.88;100.00;97365.47;5026679;28;20095;-80
2022/06/30 03:19:20;;;;;;;16.83;8.93;;;;;;;17.01;100.00;97375.00;5026849;28;20018;-81
2022/06/30 03:21:46;;;;;;;17.83;10.05;;;;;;;17.05;100.00;97372.88;5010528;28;20033;-80
2022/06/30 03:24:12;;;;;;;20.20;10.43;;;;;;;17.07;100.00;97374.44;4993875;28;20026;-80
2022/06/30 03:26:37;;;;;;;24.42;9.60;;;;;;;17.16;100.00;97365.53;4994069;28;20037;-80
2022/06/30 03:29:07;;;;;;;27.13;10.43;;;;;;;17.32;100.00;97381.19;4993816;28;20026;-80
2022/06/30 03:31:32;;;;;;;15.50;9.00;;;;;;;17.30;100.00;97375.06;4978469;28;20042;-81
2022/06/30 03:33:58;;;;;;;19.65;9.02;;;;;;;17.38;100.00;97377.06;4991752;28;20037;-80
2022/06/30 03:36:25;;;;;;;20.83;9.38;;;;;;;17.40;100.00;97370.53;5006939;28;20034;-81
2022/06/30 03:38:50;;;;;;;18.80;8.70;;;;;;;17.50;100.00;97370.53;5000581;28;20546;-81
2022/06/30 03:41:16;;;;;;;19.15;8.80;;;;;;;17.57;100.00;97371.69;5010622;28;20063;-81
2022/06/30 03:43:41;;;;;;;17.13;9.90;;;;;;;17.58;100.00;97374.25;5010616;28;20034;-80
2022/06/30 03:46:07;;;;;;;15.57;8.65;;;;;;;17.71;100.00;97372.13;5010059;28;20101;-80
2022/06/30 03:48:35;;;;;;;10.57;8.13;;;;;;;17.76;100.00;97360.84;4989777;28;20070;-79
2022/06/30 03:51:03;;;;;;;17.17;8.35;;;;;;;17.71;100.00;97372.13;5010996;28;20025;-80
2022/06/30 03:53:29;;;;;;;13.35;8.68;;;;;;;17.85;100.00;97378.94;4994472;28;20129;-79
2022/06/30 03:55:56;;;;;;;13.75;8.05;;;;;;;17.97;100.00;97382.34;4993171;28;20058;-79
2022/06/30 03:58:22;;;;;;;15.00;8.70;;;;;;;17.99;100.00;97377.66;5026477;28;20018;-80
2022/06/30 04:00:47;;;;;;;20.55;10.18;;;;;;;18.07;100.00;97373.22;5010241;28;20026;-80
2022/06/30 04:03:13;;;;;;;20.15;9.43;;;;;;;18.17;100.00;97374.06;5026475;28;20488;-80
2022/06/30 04:05:40;;;;;;;14.82;9.07;;;;;;;18.18;100.00;97380.31;5010323;28;20496;-80
2022/06/30 04:08:07;;;;;;;20.85;8.77;;;;;;;18.23;100.00;97378.88;5007961;28;20050;-80
2022/06/30 04:10:33;;;;;;;21.50;9.05;;;;;;;18.19;100.00;97384.72;5027857;28;20555;-78
2022/06/30 04:12:59;;;;;;;21.70;10.13;;;;;;;18.26;100.00;97391.28;5030318;28;20029;-80
2022/06/30 04:15:25;;;;;;;17.55;9.80;;;;;;;18.23;100.00;97378.03;5013827;28;20030;-79
2022/06/30 04:17:50;;;;;;;19.13;10.55;;;;;;;18.32;100.00;97385.25;5012104;28;20103;-80
2022/06/30 04:20:16;;;;;;;24.23;10.18;;;;;;;18.33;100.00;97376.16;4997477;28;20093;-80
2022/06/30 04:22:43;;;;;;;27.10;10.60;;;;;;;18.46;100.00;97382.06;4996989;28;20026;-79
2022/06/30 04:25:09;;;;;;;15.90;9.13;;;;;;;18.48;100.00;97379.22;4994605;28;20473;-80
2022/06/30 04:27:35;;;;;;;19.48;9.20;;;;;;;18.53;100.00;97383.22;5030446;28;20164;-80
2022/06/30 04:30:00;;;;;;;22.33;9.77;;;;;;;18.64;100.00;97382.22;5013015;28;20037;-80
2022/06/30 04:32:38;;;;;;;23.13;9.88;;;;;;;18.80;100.00;97387.81;4996806;28;20076;-82
2022/06/30 04:35:08;;;;;;;20.08;9.30;;;;;;;18.86;100.00;97377.22;5013259;28;20025;-81
2022/06/30 04:37:35;;;;;;;21.52;8.38;;;;;;;19.06;100.00;97388.84;5014804;28;20101;-81
2022/06/30 04:42:44;;;;;;;16.88;9.32;;;;;;;19.08;100.00;97383.25;5013428;28;20079;-81
2022/06/30 04:45:10;;;;;;;29.15;10.10;;;;;;;19.18;100.00;97386.75;4996933;28;20482;-78
2022/06/30 04:47:37;;;;;;;22.35;11.20;;;;;;;19.21;100.00;97379.19;4987422;28;20058;-78
2022/06/30 04:50:06;;;;;;;15.25;8.82;;;;;;;19.31;100.00;97376.41;5005390;28;20037;-79
2022/06/30 04:52:32;;;;;;;15.85;7.72;;;;;;;19.81;100.00;97360.47;5028824;28;20080;-79
2022/06/30 04:54:57;;;;;;;14.93;8.52;;;;;;;21.51;100.00;97360.38;5013173;28;20485;-79
2022/06/30 04:57:23;;;;;;;12.38;7.22;;;;;;;22.54;100.00;97392.44;5013232;28;20034;-80
2022/06/30 04:59:48;;;;;;;19.90;7.38;;;;;;;23.36;93.37;97393.03;5012993;28;20064;-81
2022/06/30 05:02:14;;;;;;;16.00;8.65;;;;;;;24.87;83.20;97393.09;4996473;28;20040;-78
2022/06/30 05:04:40;;;;;;;18.33;7.70;;;;;;;26.13;75.03;97389.84;5000077;28;20467;-80
2022/06/30 05:07:05;;;;;;;19.95;8.15;;;;;;;27.19;69.00;97383.34;5008866;28;20033;-81
2022/06/30 05:09:31;;;;;;;16.85;7.85;;;;;;;27.96;64.62;97383.88;5014053;28;20437;-87
2022/06/30 05:11:57;;;;;;;25.27;7.88;;;;;;;28.32;62.31;97373.38;5029492;28;20056;-80
2022/06/30 05:14:22;;;;;;;25.55;9.35;;;;;;;28.28;61.36;97377.59;4979071;28;20081;-80
2022/06/30 05:16:48;;;;;;;18.42;8.45;;;;;;;29.87;56.99;97374.34;5029000;28;20062;-80
2022/06/30 05:19:14;;;;;;;17.92;8.93;;;;;;;30.79;53.60;97357.16;5012442;28;20030;-80
2022/06/30 05:21:39;;;;;;;13.70;8.05;;;;;;;31.49;51.78;97375.16;5029405;28;20393;-78
2022/06/30 05:26:49;;;;;;;15.85;7.30;;;;;;;33.27;46.85;97356.66;5009204;28;20409;-78
2022/06/30 05:29:15;;;;;;;14.85;7.85;;;;;;;33.76;44.86;97356.09;5012050;28;20026;-78
2022/06/30 05:31:41;;;;;;;13.82;8.05;;;;;;;30.74;49.66;97372.69;5000431;28;20125;-79
2022/06/30 05:34:07;;;;;;;14.23;8.57;;;;;;;28.95;54.72;97373.78;5028407;28;20032;-78
2022/06/30 05:36:33;;;;;;;17.65;8.43;;;;;;;30.53;52.35;97383.09;5028487;28;20488;-78
2022/06/30 05:38:58;;;;;;;15.88;8.27;;;;;;;30.28;52.31;97382.16;5001059;28;20444;-78
2022/06/30 05:41:24;;;;;;;15.73;8.40;;;;;;;30.43;53.01;97401.19;4995892;28;20100;-78
2022/06/30 05:43:51;;;;;;;18.02;8.13;;;;;;;31.13;50.62;97392.53;4995524;28;20030;-78
2022/06/30 05:46:16;;;;;;;22.92;15.30;;;;;;;29.80;53.50;97394.75;5011861;28;20029;-78
2022/06/30 05:48:42;;;;;;;34.38;17.92;;;;;;;30.89;51.63;97393.38;5011858;28;20029;-78
2022/06/30 05:51:08;;;;;;;18.90;14.73;;;;;;;31.04;51.00;97388.38;5011426;28;20033;-79
2022/06/30 05:53:33;;;;;;;11.50;7.43;;;;;;;29.64;53.27;97400.75;5012540;28;20603;-80
2022/06/30 05:55:59;;;;;;;21.08;7.65;;;;;;;30.29;52.53;97405.97;4995406;28;20052;-78
2022/06/30 05:58:25;;;;;;;18.88;6.88;;;;;;;31.21;50.42;97398.84;4995659;28;20025;-77
2022/06/30 06:00:50;;;;;;;16.77;7.22;;;;;;;31.48;49.13;97392.78;5011843;28;20022;-79
2022/06/30 06:03:17;;;;;;;18.30;10.38;;;;;;;32.29;47.51;97397.09;4995160;28;20033;-80
2022/06/30 06:05:42;;;;;;;16.52;7.10;;;;;;;32.50;46.97;97391.88;4995448;28;20061;-78
2022/06/30 06:08:10;;;;;;;30.23;17.95;;;;;;;32.56;46.40;97385.41;4992771;28;20117;-79
2022/06/30 06:10:36;;;;;;;11.63;6.72;;;;;;;33.46;45.04;97380.41;4995070;28;20030;-79
2022/06/30 06:13:02;;;;;;;19.33;11.27;;;;;;;31.94;46.72;97389.47;5011604;28;20552;-79
2022/06/30 06:15:28;;;;;;;9.63;6.35;;;;;;;32.64;45.68;97385.06;4994744;28;20520;-79
2022/06/30 06:17:54;;;;;;;34.00;15.20;;;;;;;34.08;43.89;97384.22;4995356;28;20022;-78
2022/06/30 06:20:19;;;;;;;24.40;7.80;;;;;;;35.24;41.51;97374.38;4994105;28;20026;-78
2022/06/30 06:22:45;;;;;;;24.77;16.02;;;;;;;34.46;41.61;97366.91;4995156;28;20117;-80
2022/06/30 06:25:12;;;;;;;19.58;8.57;;;;;;;34.20;42.59;97379.50;4995441;28;20480;-80
2022/06/30 06:27:38;;;;;;;19.00;7.35;;;;;;;36.23;39.14;97377.94;4995047;28;20026;-80
2022/06/30 06:30:05;;;;;;;14.18;7.53;;;;;;;35.33;39.64;97370.03;4994990;28;20049;-80
2022/06/30 06:32:31;;;;;;;16.50;6.75;;;;;;;33.23;43.69;97378.47;5025587;28;20049;-80
2022/06/30 06:34:57;;;;;;;14.82;9.35;;;;;;;33.52;43.33;97384.97;5016053;28;20112;-80
2022/06/30 06:37:23;;;;;;;16.15;7.75;;;;;;;34.86;41.18;97369.56;5030614;28;20116;-79
2022/06/30 06:39:48;;;;;;;9.75;6.68;;;;;;;33.57;42.72;97368.41;5030985;28;20080;-79
2022/06/30 06:42:14;;;;;;;18.08;7.95;;;;;;;33.00;44.94;97375.69;5032260;28;20086;-80
2022/06/30 06:44:40;;;;;;;17.38;6.18;;;;;;;32.18;46.41;97391.28;5035348;28;20175;-79
2022/06/30 06:47:06;;;;;;;19.42;7.25;;;;;;;33.89;43.78;97373.56;5040107;28;20029;-81
2022/06/30 06:49:32;;;;;;;19.98;9.88;;;;;;;33.88;43.44;97380.19;5010884;28;20040;-80
2022/06/30 06:51:57;;;;;;;16.13;7.75;;;;;;;35.69;39.62;97361.09;5014687;28;20026;-81
2022/06/30 06:54:23;;;;;;;103.07;80.72;;;;;;;33.35;43.21;97361.81;5047223;28;20035;-80
2022/06/30 06:56:49;;;;;;;24.10;14.13;;;;;;;34.80;41.09;97357.53;5046138;28;20036;-79
2022/06/30 06:59:14;;;;;;;8.68;6.05;;;;;;;33.54;42.40;97360.59;5010975;28;20033;-79
2022/06/30 07:01:41;;;;;;;9.40;5.63;;;;;;;34.43;40.70;97367.41;5046706;28;20476;-78
2022/06/30 07:04:07;;;;;;;10.38;7.43;;;;;;;33.71;40.88;97353.22;5013508;28;20114;-78
2022/06/30 07:06:33;;;;;;;14.55;5.72;;;;;;;35.15;38.83;97353.63;5046852;28;20057;-80
2022/06/30 07:08:59;;;;;;;13.57;5.53;;;;;;;35.90;38.23;97354.69;5010736;28;20022;-80
2022/06/30 07:11:24;;;;;;;8.45;5.20;;;;;;;37.28;36.64;97352.13;5036057;28;20112;-80
2022/06/30 07:13:50;;;;;;;8.00;5.85;;;;;;;36.14;37.55;97351.66;5042552;28;20168;-79
2022/06/30 07:16:16;;;;;;;7.43;5.43;;;;;;;36.21;37.33;97352.28;5034354;28;20034;-79
2022/06/30 07:18:41;;;;;;;11.52;4.95;;;;;;;38.21;34.25;97344.78;5013501;28;20025;-79
2022/06/30 07:21:07;;;;;;;12.40;6.05;;;;;;;39.56;33.04;97345.91;5046431;28;20033;-78
2022/06/30 07:23:32;;;;;;;11.80;6.13;;;;;;;40.34;31.87;97346.16;5046373;28;20132;-78
2022/06/30 07:25:58;;;;;;;11.20;6.05;;;;;;;39.36;32.66;97337.56;5046549;28;20026;-78
2022/06/30 07:28:24;;;;;;;14.10;5.80;;;;;;;39.43;33.26;97343.72;5046184;28;20033;-78
2022/06/30 07:30:52;;;;;;;10.38;5.88;;;;;;;37.71;34.90;97334.22;5046147;28;20555;-78
2022/06/30 07:33:18;;;;;;;11.57;5.72;;;;;;;36.63;36.65;97353.28;5038630;28;20025;-78
2022/06/30 07:35:44;;;;;;;12.68;5.70;;;;;;;37.02;36.25;97347.47;5033421;28;20028;-78
2022/06/30 07:38:09;;;;;;;11.65;5.35;;;;;;;37.50;34.17;97338.88;5046209;28;20033;-77
2022/06/30 07:40:35;;;;;;;11.65;5.28;;;;;;;36.05;37.10;97347.66;5046514;28;20053;-78
2022/06/30 07:43:00;;;;;;;15.13;11.02;;;;;;;34.38;39.45;97352.56;5046223;28;20488;-77
2022/06/30 07:45:26;;;;;;;12.10;6.57;;;;;;;37.37;35.56;97330.97;5041577;28;20048;-79
2022/06/30 07:47:53;;;;;;;9.88;5.50;;;;;;;37.35;35.35;97341.53;5013267;28;20056;-78
2022/06/30 07:50:19;;;;;;;9.10;5.60;;;;;;;38.56;33.08;97330.84;5046310;28;20032;-78
2022/06/30 07:52:46;;;;;;;10.65;5.82;;;;;;;38.20;32.96;97331.91;5013331;28;20026;-79
2022/06/30 07:55:11;;;;;;;14.80;5.57;;;;;;;38.06;33.39;97322.34;5044898;28;20090;-79
2022/06/30 07:57:41;;;;;;;9.38;5.72;;;;;;;39.55;31.96;97327.44;5044692;28;20041;-79
2022/06/30 08:00:08;;;;;;;9.85;5.28;;;;;;;39.71;32.35;97317.88;4994445;28;20083;-79
2022/06/30 08:02:33;;;;;;;14.00;6.20;;;;;;;39.88;32.24;97325.91;5013359;28;20033;-79
2022/06/30 08:04:59;;;;;;;10.38;5.32;;;;;;;40.91;30.97;97318.25;5011162;28;20121;-79
2022/06/30 08:07:25;;;;;;;11.48;6.50;;;;;;;40.88;30.90;97320.81;5025967;28;20033;-79
2022/06/30 08:09:50;;;;;;;16.83;5.15;;;;;;;40.14;29.52;97309.84;5009943;28;20116;-78
2022/06/30 08:12:18;;;;;;;16.65;5.10;;;;;;;38.19;31.59;97302.25;5028273;28;20029;-78
2022/06/30 08:14:44;;;;;;;5.60;4.53;;;;;;;37.08;33.25;97288.66;5009844;28;20041;-79
2022/06/30 08:17:09;;;;;;;94.03;52.97;;;;;;;37.65;33.77;97307.41;5044834;28;20041;-80
2022/06/30 08:19:35;;;;;;;12.70;5.20;;;;;;;37.29;33.06;97309.13;5041374;28;20561;-78
2022/06/30 08:22:00;;;;;;;14.43;5.47;;;;;;;36.99;33.38;97304.22;5010658;28;20121;-78
2022/06/30 08:24:27;;;;;;;9.52;4.55;;;;;;;36.88;34.72;97303.28;5017687;28;20168;-78
2022/06/30 08:26:52;;;;;;;12.63;5.45;;;;;;;37.07;34.52;97309.28;5009571;28;20477;-78
2022/06/30 08:29:18;;;;;;;9.30;5.47;;;;;;;39.07;31.28;97300.91;5010266;28;20021;-79
2022/06/30 08:31:44;;;;;;;10.02;4.38;;;;;;;41.11;28.73;97295.59;5028983;28;20128;-80
2022/06/30 08:34:12;;;;;;;5.40;4.50;;;;;;;40.13;29.58;97294.13;5012490;28;20033;-80
2022/06/30 08:36:38;;;;;;;12.48;7.05;;;;;;;42.13;28.42;97296.09;4996383;28;20025;-80
2022/06/30 08:39:04;;;;;;;5.88;5.13;;;;;;;39.21;32.02;97298.38;5030628;28;20109;-82
2022/06/30 08:44:18;;;;;;;10.27;4.43;;;;;;;38.59;31.91;97295.88;5029066;28;20079;-80
2022/06/30 08:46:45;;;;;;;23.00;6.30;;;;;;;38.09;34.08;97305.03;5029275;28;20021;-80
2022/06/30 08:49:10;;;;;;;8.77;4.70;;;;;;;38.32;33.33;97304.53;5028916;28;20108;-79
2022/06/30 08:51:37;;;;;;;5.57;4.22;;;;;;;38.09;33.55;97302.22;5013196;28;20057;-78
2022/06/30 08:54:03;;;;;;;10.13;5.63;;;;;;;39.45;32.14;97310.66;5007295;28;20053;-86
2022/06/30 08:56:31;;;;;;;11.60;7.15;;;;;;;39.18;31.79;97296.13;5028069;28;20476;-80
2022/06/30 08:58:58;;;;;;;14.38;4.35;;;;;;;41.92;27.96;97277.84;5014802;28;20028;-82
2022/06/30 09:01:25;;;;;;;8.52;5.63;;;;;;;41.53;28.62;97294.88;5013487;28;20109;-79
2022/06/30 09:03:52;;;;;;;13.25;5.47;;;;;;;39.46;31.05;97301.97;5010539;28;20018;-80
2022/06/30 09:06:17;;;;;;;12.60;4.65;;;;;;;40.53;28.92;97285.47;5008830;28;20029;-80
2022/06/30 09:08:43;;;;;;;7.38;4.50;;;;;;;40.51;30.29;97302.59;5032632;28;20032;-92
2022/06/30 09:11:09;;;;;;;6.03;4.07;;;;;;;39.59;30.27;97294.94;5040883;28;20022;-81
2022/06/30 09:13:55;;;;;;;9.63;4.28;;;;;;;39.04;30.11;97282.72;4994086;28;20038;-81
2022/06/30 09:16:21;;;;;;;5.75;4.03;;;;;;;39.73;29.87;97289.56;5011191;28;20026;-81
2022/06/30 09:18:46;;;;;;;7.35;4.50;;;;;;;41.19;29.31;97282.06;5026897;28;20033;-81
2022/06/30 09:21:15;;;;;;;7.95;4.38;;;;;;;40.91;28.01;97281.75;5035534;28;20056;-81
2022/06/30 09:23:43;;;;;;;11.02;6.82;;;;;;;42.63;26.37;97285.25;5013408;28;20472;-81
2022/06/30 09:26:16;;;;;;;8.15;4.18;;;;;;;41.83;27.18;97279.66;5009614;28;20473;-81
2022/06/30 09:28:55;;;;;;;10.77;5.28;;;;;;;41.18;28.63;97281.22;5012975;28;20033;-81
2022/06/30 09:31:38;;;;;;;6.68;4.22;;;;;;;39.25;30.25;97297.56;5043851;28;20053;-80
2022/06/30 09:34:18;;;;;;;10.30;6.72;;;;;;;38.61;31.00;97283.28;5033250;28;20423;-81
2022/06/30 09:36:45;;;;;;;6.53;4.00;;;;;;;39.25;31.23;97291.97;5012922;28;20048;-80
2022/06/30 09:39:13;;;;;;;8.65;4.35;;;;;;;40.76;28.94;97281.06;5010603;28;20036;-80
2022/06/30 09:41:40;;;;;;;9.15;3.80;;;;;;;43.29;25.72;97284.91;5029200;28;20026;-82
2022/06/30 09:44:06;;;;;;;10.98;5.03;;;;;;;40.54;26.65;97273.13;4996672;28;20215;-81
2022/06/30 09:46:36;;;;;;;16.73;4.28;;;;;;;40.58;28.03;97279.78;5009985;28;20044;-81
2022/06/30 09:49:03;;;;;;;10.65;4.20;;;;;;;41.48;26.67;97277.25;4996715;28;20065;-81
2022/06/30 09:51:31;;;;;;;4.18;3.50;;;;;;;43.91;23.99;97269.28;5029912;28;20030;-81
2022/06/30 09:54:10;;;;;;;8.85;3.97;;;;;;;41.83;25.80;97259.97;5013029;28;20040;-80
2022/06/30 09:56:35;;;;;;;7.72;4.43;;;;;;;41.41;25.86;97266.38;5008968;28;20033;-80
2022/06/30 09:59:04;;;;;;;7.30;4.30;;;;;;;40.30;26.88;97266.53;5025347;28;20525;-80
2022/06/30 10:01:49;;;;;;;11.93;8.75;;;;;;;40.14;28.45;97268.63;4996388;28;20037;-81
2022/06/30 10:04:17;;;;;;;19.45;6.38;;;;;;;39.59;27.68;97268.88;5030778;28;20033;-81
2022/06/30 10:06:43;;;;;;;8.55;4.50;;;;;;;38.17;30.06;97257.81;5036505;28;20040;-80
2022/06/30 10:09:09;;;;;;;4.65;3.58;;;;;;;41.23;25.81;97253.06;5008830;28;20030;-82
2022/06/30 10:11:36;;;;;;;7.82;3.85;;;;;;;43.01;23.87;97253.03;5010112;28;20040;-81
2022/06/30 10:14:02;;;;;;;17.15;3.92;;;;;;;41.24;25.06;97248.28;5021349;28;20580;-81
2022/06/30 10:16:28;;;;;;;6.63;4.05;;;;;;;42.03;25.59;97251.22;5009264;28;20108;-82
2022/06/30 10:18:54;;;;;;;10.98;4.05;;;;;;;40.64;26.75;97241.31;5045510;28;20038;-80
2022/06/30 10:21:22;;;;;;;8.00;4.43;;;;;;;39.55;28.17;97247.03;5044974;28;20042;-80
2022/06/30 10:23:50;;;;;;;50.13;33.63;;;;;;;39.41;28.33;97251.56;5011945;28;20384;-80
2022/06/30 10:29:02;;;;;;;13.55;4.10;;;;;;;40.84;26.74;97241.97;5012570;28;20155;-81
2022/06/30 10:31:55;;;;;;;10.55;6.40;;;;;;;41.30;26.22;97244.28;5028071;28;20415;-80
2022/06/30 10:34:26;;;;;;;11.10;3.50;;;;;;;40.91;26.67;97234.03;5028483;28;20037;-82
2022/06/30 10:37:25;;;;;;;11.00;3.88;;;;;;;41.26;26.64;97243.19;5027666;28;20033;-81
2022/06/30 10:39:57;;;;;;;10.32;6.47;;;;;;;40.98;26.24;97234.53;5016011;28;20037;-81
2022/06/30 10:43:03;;;;;;;8.30;3.90;;;;;;;40.14;26.22;97223.75;5028357;28;20536;-80
2022/06/30 10:45:31;;;;;;;4.90;3.75;;;;;;;39.58;26.99;97227.97;5027286;28;20417;-80
2022/06/30 10:48:07;;;;;;;4.88;3.95;;;;;;;39.34;28.46;97231.44;5028014;28;20033;-79
2022/06/30 10:50:40;;;;;;;17.25;4.63;;;;;;;39.90;27.26;97229.19;5028007;28;20037;-80
2022/06/30 10:53:10;;;;;;;5.60;3.95;;;;;;;40.47;26.64;97227.69;5027666;28;20458;-81
2022/06/30 10:55:44;;;;;;;8.30;4.18;;;;;;;39.90;27.56;97228.38;5008343;28;20037;-80
2022/06/30 10:58:11;;;;;;;11.32;4.15;;;;;;;41.88;25.56;97219.69;5027831;28;20038;-81
2022/06/30 11:00:44;;;;;;;6.53;4.47;;;;;;;41.33;26.94;97226.84;5027800;28;20425;-81
2022/06/30 11:03:09;;;;;;;5.30;3.72;;;;;;;42.23;25.92;97212.72;5028764;28;20033;-80
2022/06/30 11:05:49;;;;;;;7.57;3.85;;;;;;;38.67;28.87;97212.25;5027414;28;20071;-80
2022/06/30 11:08:39;;;;;;;6.40;3.60;;;;;;;40.05;28.78;97215.09;5027580;28;20041;-81
2022/06/30 11:11:20;;;;;;;13.25;3.97;;;;;;;40.86;28.73;97220.03;5010832;28;20056;-81
2022/06/30 11:13:46;;;;;;;13.60;4.10;;;;;;;41.33;26.47;97199.59;5027747;28;20030;-80
2022/06/30 11:16:19;;;;;;;6.05;4.65;;;;;;;40.30;28.28;97208.47;5010833;28;20454;-80
2022/06/30 11:18:45;;;;;;;8.30;5.00;;;;;;;40.48;27.11;97204.13;5011144;28;20039;-80
2022/06/30 11:21:11;;;;;;;9.18;4.15;;;;;;;40.48;27.19;97201.31;5010310;28;20125;-81
2022/06/30 11:23:46;;;;;;;10.52;4.07;;;;;;;39.43;29.32;97203.69;5007200;28;20479;-80
2022/06/30 11:28:59;;;;;;;5.90;3.70;;;;;;;41.26;27.89;97195.44;5027494;28;20055;-80
2022/06/30 11:31:29;;;;;;;12.15;5.28;;;;;;;39.94;28.42;97199.47;5026758;28;20068;-80
2022/06/30 11:34:02;;;;;;;9.05;5.05;;;;;;;38.24;30.32;97193.25;5010978;28;20443;-80
2022/06/30 11:36:28;;;;;;;8.73;3.95;;;;;;;38.42;30.39;97196.34;5028292;28;20033;-80
2022/06/30 11:38:58;;;;;;;8.23;3.80;;;;;;;38.68;29.96;97199.09;5011083;28;20037;-79
2022/06/30 11:44:13;;;;;;;5.18;4.07;;;;;;;41.45;27.10;97190.75;5010085;28;20095;-81